Time;durP1;ratioP1;P1;durP2;ratioP2;P2;SDS_P1;SDS_P2;PMS_P1;PMS_P2;Temp;Humidity;BMP_temperature;BMP_pressure;BME280_temperature;BME280_humidity;BME280_pressure;Samples;Min_cycle;Max_cycle;Signal;HPM_P1;HPM_P2
2023/01/21 00:02:17;;;;;;;29.08;17.70;;;;;;;1.25;74.48;100627.47;5045208;28;20584;-76
2023/01/21 00:04:42;;;;;;;34.05;20.35;;;;;;;1.22;73.98;100627.84;5045233;28;20547;-78
2023/01/21 00:07:07;;;;;;;34.35;19.13;;;;;;;1.31;74.60;100632.13;5044915;28;20029;-79
2023/01/21 00:09:33;;;;;;;34.55;19.35;;;;;;;1.33;73.77;100631.94;5045222;28;20049;-79
2023/01/21 00:12:01;;;;;;;30.08;19.38;;;;;;;1.35;73.87;100637.97;5044426;28;20083;-78
2023/01/21 00:14:27;;;;;;;34.85;20.35;;;;;;;1.38;73.32;100643.81;5044820;28;20045;-77
2023/01/21 00:16:53;;;;;;;35.28;22.05;;;;;;;1.32;73.50;100649.09;5044977;28;20029;-78
2023/01/21 00:19:18;;;;;;;32.10;20.10;;;;;;;1.36;73.45;100655.78;5043865;28;20406;-78
2023/01/21 00:21:44;;;;;;;30.08;19.17;;;;;;;1.42;73.00;100663.13;5044697;28;20103;-77
2023/01/21 00:24:09;;;;;;;36.53;20.43;;;;;;;1.20;72.59;100662.94;5043892;28;20478;-77
2023/01/21 00:26:34;;;;;;;35.53;22.48;;;;;;;1.16;73.17;100677.75;5044777;28;20304;-78
2023/01/21 00:28:59;;;;;;;37.90;22.05;;;;;;;1.11;72.75;100672.09;5043843;28;20051;-78
2023/01/21 00:31:26;;;;;;;42.20;22.47;;;;;;;1.13;73.39;100678.97;5044309;28;20037;-78
2023/01/21 00:33:51;;;;;;;31.13;18.70;;;;;;;1.12;73.39;100679.16;5043780;28;20335;-77
2023/01/21 00:36:17;;;;;;;38.17;23.05;;;;;;;0.90;74.42;100685.16;5044306;28;20033;-78
2023/01/21 00:38:43;;;;;;;37.35;21.23;;;;;;;0.94;73.90;100691.00;5043688;28;20045;-78
2023/01/21 00:41:11;;;;;;;36.83;20.02;;;;;;;1.02;73.80;100682.88;5043225;28;20056;-76
2023/01/21 00:43:38;;;;;;;28.67;18.80;;;;;;;0.94;73.73;100696.38;5043596;28;20036;-78
2023/01/21 00:46:03;;;;;;;33.00;21.05;;;;;;;0.96;73.98;100698.88;5042846;28;20098;-79
2023/01/21 00:48:29;;;;;;;36.10;22.05;;;;;;;0.99;73.98;100694.00;5042685;28;20114;-77
2023/01/21 00:50:57;;;;;;;37.80;24.23;;;;;;;1.08;73.63;100702.81;5042584;28;20086;-79
2023/01/21 00:53:23;;;;;;;34.33;19.70;;;;;;;1.17;73.85;100703.59;5042610;28;20278;-78
2023/01/21 00:55:48;;;;;;;35.63;22.45;;;;;;;1.22;72.89;100698.53;5042927;28;20390;-78
2023/01/21 00:58:13;;;;;;;29.25;19.65;;;;;;;1.18;73.56;100705.25;5041849;28;20039;-77
2023/01/21 01:00:38;;;;;;;27.63;18.25;;;;;;;1.10;73.01;100708.84;5042927;28;20028;-77
2023/01/21 01:03:04;;;;;;;31.50;19.73;;;;;;;1.13;73.92;100715.72;5042504;28;20033;-78
2023/01/21 01:05:29;;;;;;;35.88;21.80;;;;;;;1.19;73.23;100720.38;5042708;28;20254;-78
2023/01/21 01:07:55;;;;;;;34.15;19.63;;;;;;;1.14;73.14;100723.59;5042587;28;20063;-78
2023/01/21 01:10:20;;;;;;;28.97;18.13;;;;;;;1.22;73.05;100728.06;5043012;28;20239;-78
2023/01/21 01:12:45;;;;;;;29.83;19.80;;;;;;;1.12;72.59;100728.31;5042504;28;20358;-78
2023/01/21 01:15:11;;;;;;;35.47;21.20;;;;;;;1.21;72.50;100737.16;5042991;28;20033;-77
2023/01/21 01:17:36;;;;;;;29.25;21.45;;;;;;;1.08;72.75;100750.34;5042712;28;20051;-78
2023/01/21 01:20:01;;;;;;;33.75;20.52;;;;;;;1.16;72.73;100759.19;5042278;28;20053;-78
2023/01/21 01:22:27;;;;;;;34.38;18.10;;;;;;;1.11;72.83;100760.72;5043141;28;20036;-77
2023/01/21 01:24:52;;;;;;;30.30;18.38;;;;;;;1.11;73.07;100760.72;5042551;28;20032;-79
2023/01/21 01:27:18;;;;;;;40.22;20.98;;;;;;;1.19;72.72;100768.75;5041372;28;20040;-78
2023/01/21 01:29:43;;;;;;;38.65;22.02;;;;;;;1.18;72.11;100767.06;5042194;28;20025;-78
2023/01/21 01:32:09;;;;;;;31.08;19.73;;;;;;;1.12;72.30;100775.84;5041863;28;20652;-78
2023/01/21 01:34:34;;;;;;;38.78;21.45;;;;;;;1.10;71.71;100791.31;5041648;28;20033;-78
2023/01/21 01:36:59;;;;;;;34.70;19.92;;;;;;;1.10;72.77;100788.63;5042105;28;20378;-79
2023/01/21 01:39:25;;;;;;;37.47;21.00;;;;;;;0.93;73.11;100799.44;5041737;28;20119;-78
2023/01/21 01:41:50;;;;;;;38.40;22.93;;;;;;;1.09;72.67;100790.47;5042489;28;20029;-78
2023/01/21 01:44:57;;;;;;;31.60;19.17;;;;;;;1.04;72.92;100801.72;5045372;28;20289;-77
2023/01/21 01:47:32;;;;;;;37.80;22.30;;;;;;;1.07;72.82;100807.75;5046223;28;21102;-77
2023/01/21 01:50:00;;;;;;;36.70;23.45;;;;;;;0.98;72.55;100807.81;5046482;28;20032;-78
2023/01/21 01:52:26;;;;;;;35.97;21.15;;;;;;;0.98;72.49;100810.50;5045961;28;20044;-78
2023/01/21 01:54:56;;;;;;;44.40;23.15;;;;;;;1.15;72.81;100813.94;5045752;28;20029;-76
2023/01/21 01:57:28;;;;;;;38.55;22.48;;;;;;;1.14;72.64;100809.56;5046078;28;20538;-78
2023/01/21 01:59:54;;;;;;;30.52;17.95;;;;;;;1.18;72.63;100815.41;5046232;28;20812;-76
2023/01/21 02:02:19;;;;;;;35.40;21.25;;;;;;;1.11;72.58;100811.78;5046681;28;20729;-78
2023/01/21 02:04:48;;;;;;;29.77;19.80;;;;;;;0.97;73.46;100816.88;5046278;28;20044;-77
2023/01/21 02:07:16;;;;;;;33.72;20.50;;;;;;;0.94;73.02;100817.22;5045742;28;20028;-78
2023/01/21 02:09:41;;;;;;;31.35;21.30;;;;;;;0.97;72.89;100830.31;5045888;28;20504;-78
2023/01/21 02:12:06;;;;;;;33.05;19.92;;;;;;;0.98;73.56;100815.84;5045562;28;20045;-78
2023/01/21 02:14:41;;;;;;;35.25;22.17;;;;;;;0.96;72.75;100823.25;5046259;28;20041;-78
2023/01/21 02:17:09;;;;;;;39.38;21.50;;;;;;;0.86;72.79;100822.63;5045916;28;20029;-78
2023/01/21 02:19:47;;;;;;;34.65;21.75;;;;;;;0.91;73.63;100831.00;5045778;28;20048;-78
2023/01/21 02:22:22;;;;;;;37.97;21.33;;;;;;;0.74;73.27;100827.53;5046063;28;20040;-78
2023/01/21 02:25:20;;;;;;;38.05;20.33;;;;;;;0.81;74.03;100826.66;5044448;28;20036;-77
2023/01/21 02:27:53;;;;;;;41.05;21.08;;;;;;;0.86;73.24;100828.00;5045502;28;20591;-77
2023/01/21 02:30:47;;;;;;;39.00;22.25;;;;;;;0.92;72.64;100832.66;5045669;28;20040;-76
2023/01/21 02:33:30;;;;;;;37.97;20.70;;;;;;;0.75;73.14;100838.13;5045788;28;20036;-79
2023/01/21 02:36:20;;;;;;;39.70;23.33;;;;;;;0.89;73.37;100838.41;5045980;28;20036;-79
2023/01/21 02:39:02;;;;;;;32.03;21.52;;;;;;;0.83;72.91;100829.19;5044730;28;20798;-78
2023/01/21 02:41:47;;;;;;;35.20;19.65;;;;;;;0.84;73.27;100846.13;5044952;28;20459;-77
2023/01/21 02:44:23;;;;;;;37.05;24.20;;;;;;;0.65;73.77;100843.66;5045315;28;20032;-78
2023/01/21 02:46:55;;;;;;;32.72;20.95;;;;;;;0.78;73.61;100847.66;5044759;28;20075;-78
2023/01/21 02:49:28;;;;;;;34.70;23.60;;;;;;;0.71;74.05;100850.22;5044446;28;20044;-78
2023/01/21 02:51:53;;;;;;;40.70;21.27;;;;;;;0.68;73.71;100858.59;5045050;28;20671;-78
2023/01/21 02:54:37;;;;;;;43.25;23.05;;;;;;;0.68;73.29;100848.72;5043935;28;20025;-78
2023/01/21 02:57:04;;;;;;;40.93;22.97;;;;;;;0.62;73.49;100856.59;5044437;28;20064;-78
2023/01/21 02:59:30;;;;;;;39.17;23.27;;;;;;;0.58;73.92;100864.16;5044377;28;20363;-78
2023/01/21 03:02:22;;;;;;;36.88;22.23;;;;;;;0.70;73.50;100864.63;5045430;28;20090;-78
2023/01/21 03:05:15;;;;;;;34.80;23.02;;;;;;;0.71;73.41;100869.00;5045493;28;20033;-78
2023/01/21 03:07:47;;;;;;;43.17;24.27;;;;;;;0.78;72.89;100872.66;5044759;28;21148;-78
2023/01/21 03:10:35;;;;;;;33.42;20.95;;;;;;;0.77;72.87;100879.03;5045155;28;20098;-78
2023/01/21 03:13:05;;;;;;;35.17;22.58;;;;;;;0.67;72.89;100884.59;5045119;28;20057;-78
2023/01/21 03:18:28;;;;;;;42.28;23.05;;;;;;;0.61;73.00;100884.47;5044977;28;20051;-78
2023/01/21 03:21:18;;;;;;;43.10;24.88;;;;;;;0.66;72.97;100892.84;5045004;28;20118;-79
2023/01/21 03:23:48;;;;;;;43.28;24.05;;;;;;;0.76;73.53;100888.13;5045807;28;20127;-77
2023/01/21 03:26:17;;;;;;;41.38;24.00;;;;;;;0.76;73.23;100892.63;5045047;28;20171;-77
2023/01/21 03:28:46;;;;;;;34.00;21.58;;;;;;;0.60;72.34;100886.31;5044684;28;20123;-76
2023/01/21 03:31:17;;;;;;;42.47;24.25;;;;;;;0.52;72.56;100891.69;5044595;28;20032;-77
2023/01/21 03:33:47;;;;;;;39.33;22.50;;;;;;;0.55;72.63;100897.53;5045167;28;20028;-78
2023/01/21 03:36:23;;;;;;;40.17;24.52;;;;;;;0.56;72.45;100893.03;5045299;28;20162;-78
2023/01/21 03:38:51;;;;;;;39.15;23.83;;;;;;;0.57;72.11;100898.22;5043983;28;20040;-78
2023/01/21 03:41:21;;;;;;;32.70;20.30;;;;;;;0.56;72.72;100899.25;5044510;28;20044;-78
2023/01/21 03:43:47;;;;;;;34.03;23.45;;;;;;;0.66;72.36;100900.88;5044794;28;20401;-77
2023/01/21 03:46:23;;;;;;;43.22;21.88;;;;;;;0.58;72.15;100905.28;5044577;28;20048;-78
2023/01/21 03:49:10;;;;;;;36.47;22.55;;;;;;;0.57;72.36;100911.63;5044007;28;20107;-78
2023/01/21 03:51:40;;;;;;;44.03;20.63;;;;;;;0.61;71.79;100917.50;5043413;28;20076;-77
2023/01/21 03:54:05;;;;;;;37.60;20.40;;;;;;;0.48;71.80;100917.19;5044244;28;20645;-78
2023/01/21 03:56:31;;;;;;;39.23;23.27;;;;;;;0.44;72.13;100917.53;5044258;28;20029;-77
2023/01/21 03:58:56;;;;;;;36.78;24.75;;;;;;;0.37;71.59;100911.16;5043623;28;20891;-77
2023/01/21 04:01:21;;;;;;;40.67;21.52;;;;;;;0.38;71.97;100917.38;5044254;28;20031;-78
2023/01/21 04:03:47;;;;;;;37.60;23.23;;;;;;;0.31;72.21;100920.72;5043693;28;20379;-78
2023/01/21 04:06:14;;;;;;;35.53;23.15;;;;;;;0.17;71.91;100922.22;5043217;28;20050;-78
2023/01/21 04:08:39;;;;;;;46.63;25.27;;;;;;;0.24;72.17;100917.03;5043092;28;20120;-78
2023/01/21 04:11:04;;;;;;;36.97;23.95;;;;;;;0.24;72.45;100925.09;5042903;28;20205;-78
2023/01/21 04:13:30;;;;;;;44.42;23.92;;;;;;;0.37;72.19;100927.25;5043296;28;20016;-78
2023/01/21 04:15:55;;;;;;;58.87;24.33;;;;;;;0.34;71.85;100931.13;5043752;28;20033;-76
2023/01/21 04:18:20;;;;;;;42.20;24.67;;;;;;;0.25;72.20;100929.44;5043295;28;20263;-78
2023/01/21 04:20:45;;;;;;;38.38;22.10;;;;;;;0.28;72.20;100926.44;5044220;28;20293;-78
2023/01/21 04:23:11;;;;;;;42.10;24.55;;;;;;;0.22;71.71;100927.09;5043535;28;20106;-78
2023/01/21 04:25:37;;;;;;;35.63;22.15;;;;;;;0.31;72.04;100931.44;5043425;28;20643;-77
2023/01/21 04:28:02;;;;;;;40.88;24.38;;;;;;;0.35;71.57;100934.63;5043457;28;20129;-78
2023/01/21 04:30:27;;;;;;;42.10;25.05;;;;;;;0.28;70.99;100944.38;5043743;28;20427;-78
2023/01/21 04:32:53;;;;;;;37.83;21.23;;;;;;;0.26;71.64;100949.91;5043913;28;20033;-78
2023/01/21 04:35:18;;;;;;;37.85;23.98;;;;;;;0.22;72.04;100948.56;5043677;28;20230;-77
2023/01/21 04:37:43;;;;;;;40.63;25.23;;;;;;;0.23;72.24;100952.91;5042539;28;20060;-78
2023/01/21 04:40:09;;;;;;;43.83;22.73;;;;;;;0.33;71.65;100948.22;5043488;28;20277;-77
2023/01/21 04:42:35;;;;;;;32.70;22.30;;;;;;;0.34;71.76;100949.91;5043266;28;20345;-78
2023/01/21 04:45:00;;;;;;;40.83;23.23;;;;;;;0.36;71.40;100946.22;5043122;28;20506;-77
2023/01/21 04:47:25;;;;;;;37.45;23.50;;;;;;;0.33;70.93;100953.59;5042575;28;20032;-78
2023/01/21 04:49:51;;;;;;;35.30;23.25;;;;;;;0.31;71.12;100954.75;5042172;28;20044;-77
2023/01/21 04:52:17;;;;;;;36.13;22.30;;;;;;;0.15;70.59;100953.75;5042726;28;20045;-78
2023/01/21 04:54:42;;;;;;;46.22;23.25;;;;;;;0.14;70.99;100956.59;5043144;28;20033;-78
2023/01/21 04:57:07;;;;;;;38.88;23.77;;;;;;;0.18;70.32;100955.25;5042727;28;21401;-78
2023/01/21 04:59:33;;;;;;;37.00;21.80;;;;;;;0.26;70.67;100965.16;5042697;28;20029;-79
2023/01/21 05:01:58;;;;;;;36.03;21.08;;;;;;;0.10;70.79;100954.22;5042897;28;20102;-78
2023/01/21 05:04:23;;;;;;;42.22;22.67;;;;;;;0.10;70.58;100964.97;5042547;28;20033;-78
2023/01/21 05:06:48;;;;;;;40.85;22.23;;;;;;;-0.08;70.25;100964.28;5042113;28;20037;-76
2023/01/21 05:09:14;;;;;;;35.88;22.23;;;;;;;-0.16;70.13;100970.44;5042139;28;20100;-78
2023/01/21 05:11:39;;;;;;;37.15;22.98;;;;;;;-0.16;70.46;100965.91;5042425;28;20505;-79
2023/01/21 05:14:04;;;;;;;34.08;19.95;;;;;;;-0.17;70.43;100966.94;5042605;28;20033;-78
2023/01/21 05:16:29;;;;;;;46.33;23.20;;;;;;;-0.34;70.01;100975.91;5042646;28;20078;-77
2023/01/21 05:18:55;;;;;;;35.10;22.48;;;;;;;-0.31;70.25;100978.28;5041349;28;20068;-78
2023/01/21 05:21:20;;;;;;;37.30;21.77;;;;;;;-0.27;71.08;100982.31;5042595;28;20033;-77
2023/01/21 05:23:45;;;;;;;39.65;24.98;;;;;;;-0.22;70.57;100984.53;5041802;28;20693;-77
2023/01/21 05:26:10;;;;;;;43.75;24.92;;;;;;;-0.40;71.20;100990.81;5041716;28;20029;-77
2023/01/21 05:28:36;;;;;;;37.70;22.65;;;;;;;-0.34;71.51;100983.94;5042217;28;20477;-77
2023/01/21 05:31:01;;;;;;;46.85;25.77;;;;;;;-0.27;71.38;100993.03;5042084;28;20058;-78
2023/01/21 05:33:31;;;;;;;39.10;23.52;;;;;;;-0.27;71.27;101001.09;5042007;28;20698;-77
2023/01/21 05:35:57;;;;;;;43.08;26.58;;;;;;;-0.30;70.77;100996.88;5042322;28;20382;-78
2023/01/21 05:38:22;;;;;;;40.15;24.48;;;;;;;-0.34;71.52;100995.53;5041573;28;20768;-77
2023/01/21 05:40:47;;;;;;;34.87;24.70;;;;;;;-0.32;71.30;101006.06;5042045;28;20032;-77
2023/01/21 05:43:12;;;;;;;42.10;24.35;;;;;;;-0.33;71.29;101013.31;5042095;28;20663;-77
2023/01/21 05:45:38;;;;;;;37.58;22.92;;;;;;;-0.29;71.29;101014.66;5042368;28;20077;-77
2023/01/21 05:48:03;;;;;;;34.88;24.52;;;;;;;-0.31;71.41;101013.13;5041390;28;20344;-77
2023/01/21 05:50:28;;;;;;;38.90;22.70;;;;;;;-0.33;71.29;101017.81;5042117;28;20510;-77
2023/01/21 05:52:54;;;;;;;48.63;24.70;;;;;;;-0.34;71.46;101013.44;5042025;28;20386;-78
2023/01/21 05:55:19;;;;;;;41.57;24.40;;;;;;;-0.34;71.42;101021.47;5041883;28;20332;-77
2023/01/21 05:57:47;;;;;;;41.35;24.70;;;;;;;-0.45;71.21;101023.47;5040368;28;20280;-78
2023/01/21 06:00:13;;;;;;;41.05;22.50;;;;;;;-0.38;71.43;101039.72;5042093;28;20060;-78
2023/01/21 06:02:38;;;;;;;42.05;25.77;;;;;;;-0.22;71.92;101032.78;5042006;28;20801;-79
2023/01/21 06:05:04;;;;;;;40.95;23.65;;;;;;;-0.23;71.23;101050.69;5042320;28;20351;-78
2023/01/21 06:07:29;;;;;;;42.33;24.20;;;;;;;-0.28;71.53;101047.63;5040143;28;20079;-77
2023/01/21 06:09:55;;;;;;;49.20;27.77;;;;;;;-0.26;72.05;101046.50;5041769;28;20036;-77
2023/01/21 06:12:20;;;;;;;44.70;24.83;;;;;;;-0.21;71.52;101059.41;5042116;28;20029;-77
2023/01/21 06:14:45;;;;;;;35.40;19.00;;;;;;;-0.29;71.55;101052.19;5041801;28;20351;-77
2023/01/21 06:17:10;;;;;;;34.53;24.37;;;;;;;-0.28;71.98;101063.72;5041177;28;20037;-77
2023/01/21 06:19:36;;;;;;;39.73;25.33;;;;;;;-0.17;72.14;101068.81;5041427;28;20258;-77
2023/01/21 06:22:01;;;;;;;42.30;26.80;;;;;;;-0.14;72.35;101071.16;5041883;28;20254;-77
2023/01/21 06:24:26;;;;;;;43.08;26.65;;;;;;;-0.14;72.06;101075.69;5041434;28;20261;-76
2023/01/21 06:26:52;;;;;;;46.00;27.07;;;;;;;-0.10;72.20;101076.22;5041448;28;20029;-77
2023/01/21 06:29:17;;;;;;;43.88;29.45;;;;;;;-0.05;73.04;101082.78;5042287;28;20364;-77
2023/01/21 06:31:42;;;;;;;41.97;24.73;;;;;;;0.01;73.13;101078.59;5045084;28;20569;-77
2023/01/21 06:34:09;;;;;;;28.70;20.88;;;;;;;0.05;73.25;101079.97;5045399;28;20040;-77
2023/01/21 06:36:35;;;;;;;36.25;23.08;;;;;;;0.15;72.57;101092.38;5045646;28;20051;-77
2023/01/21 06:39:00;;;;;;;41.10;25.30;;;;;;;0.20;72.58;101087.38;5044457;28;20048;-78
2023/01/21 06:41:25;;;;;;;45.67;25.80;;;;;;;0.27;73.23;101093.75;5045598;28;20044;-78
2023/01/21 06:43:50;;;;;;;50.20;27.52;;;;;;;0.31;72.68;101095.13;5045478;28;20288;-78
2023/01/21 06:46:16;;;;;;;40.93;26.83;;;;;;;0.38;72.47;101092.63;5045141;28;20049;-78
2023/01/21 06:48:42;;;;;;;40.33;25.95;;;;;;;0.42;72.75;101087.78;5044924;28;20266;-78
2023/01/21 06:51:07;;;;;;;37.40;24.20;;;;;;;0.43;73.08;101092.13;5044939;28;20082;-78
2023/01/21 06:53:32;;;;;;;38.90;26.27;;;;;;;0.48;72.49;101089.78;5045212;28;20037;-78
2023/01/21 06:55:57;;;;;;;60.63;24.27;;;;;;;0.43;72.81;101084.06;5044741;28;20454;-77
2023/01/21 06:58:23;;;;;;;41.80;27.70;;;;;;;0.46;72.97;101094.50;5044573;28;20044;-78
2023/01/21 07:00:48;;;;;;;40.38;26.70;;;;;;;0.34;73.11;101093.97;5044622;28;20510;-77
2023/01/21 07:03:13;;;;;;;32.25;20.75;;;;;;;0.35;72.83;101103.69;5045196;28;20250;-77
2023/01/21 07:05:39;;;;;;;40.33;24.45;;;;;;;0.30;73.27;101106.03;5044548;28;20029;-78
2023/01/21 07:08:04;;;;;;;42.38;26.17;;;;;;;0.42;73.29;101103.88;5044546;28;20044;-78
2023/01/21 07:10:30;;;;;;;39.10;26.58;;;;;;;0.53;73.15;101106.22;5044679;28;20049;-78
2023/01/21 07:12:55;;;;;;;43.92;22.35;;;;;;;0.57;72.68;101109.44;5044689;28;20044;-78
2023/01/21 07:15:23;;;;;;;45.08;25.10;;;;;;;0.53;72.73;101108.91;5044972;28;20075;-78
2023/01/21 07:17:48;;;;;;;46.80;26.67;;;;;;;0.49;73.39;101117.47;5044041;28;20444;-78
2023/01/21 07:20:14;;;;;;;41.70;24.83;;;;;;;0.53;72.79;101116.97;5044141;28;20041;-78
2023/01/21 07:22:39;;;;;;;45.78;26.73;;;;;;;0.63;72.69;101113.31;5044149;28;20036;-78
2023/01/21 07:25:05;;;;;;;53.33;28.30;;;;;;;0.52;72.98;101128.72;5043921;28;20470;-78
2023/01/21 07:27:30;;;;;;;44.42;27.33;;;;;;;0.56;73.04;101134.59;5043841;28;20071;-79
2023/01/21 07:29:56;;;;;;;41.20;24.52;;;;;;;0.48;72.81;101127.38;5044195;28;20445;-79
2023/01/21 07:32:21;;;;;;;39.97;23.80;;;;;;;0.49;73.19;101131.72;5044276;28;20029;-78
2023/01/21 07:34:46;;;;;;;35.20;23.40;;;;;;;0.58;72.90;101143.34;5044050;28;20029;-78
2023/01/21 07:37:11;;;;;;;43.33;26.02;;;;;;;0.62;72.52;101136.63;5043809;28;20349;-79
2023/01/21 07:39:37;;;;;;;36.95;23.73;;;;;;;0.65;72.71;101143.53;5044334;28;20702;-78
2023/01/21 07:42:02;;;;;;;40.07;24.43;;;;;;;0.66;73.13;101150.56;5043087;28;20033;-78
2023/01/21 07:44:27;;;;;;;36.97;24.17;;;;;;;0.67;72.76;101155.75;5043926;28;20262;-78
2023/01/21 07:46:52;;;;;;;46.67;28.92;;;;;;;0.64;72.54;101152.56;5043142;28;20049;-78
2023/01/21 07:49:18;;;;;;;60.30;27.23;;;;;;;0.34;73.99;101151.16;5043373;28;20064;-78
2023/01/21 07:51:44;;;;;;;47.67;27.65;;;;;;;0.48;73.66;101154.22;5044453;28;20394;-78
2023/01/21 07:54:10;;;;;;;51.75;32.13;;;;;;;0.57;74.10;101158.59;5043488;28;20029;-78
2023/01/21 07:56:37;;;;;;;66.47;37.60;;;;;;;0.63;73.67;101167.00;5044021;28;20511;-78
2023/01/21 07:59:02;;;;;;;68.78;37.08;;;;;;;0.69;73.04;101167.16;5043394;28;20475;-77
2023/01/21 08:01:30;;;;;;;55.13;33.97;;;;;;;0.73;73.10;101166.84;5043262;28;20502;-78
2023/01/21 08:03:56;;;;;;;57.55;34.15;;;;;;;0.65;73.05;101171.19;5043762;28;20258;-78
2023/01/21 08:06:21;;;;;;;95.50;43.92;;;;;;;0.67;74.07;101179.91;5043100;28;20037;-78
2023/01/21 08:08:47;;;;;;;72.97;41.45;;;;;;;0.51;73.73;101185.25;5043107;28;20045;-78
2023/01/21 08:11:12;;;;;;;55.00;31.27;;;;;;;0.58;74.62;101176.38;5042939;28;20245;-78
2023/01/21 08:13:37;;;;;;;48.72;28.00;;;;;;;0.81;73.75;101175.75;5043348;28;20285;-78
2023/01/21 08:16:03;;;;;;;43.15;28.27;;;;;;;0.78;73.45;101178.78;5042903;28;20056;-78
2023/01/21 08:18:28;;;;;;;63.05;28.88;;;;;;;0.75;74.00;101179.13;5042738;28;20616;-76
2023/01/21 08:20:55;;;;;;;41.85;23.75;;;;;;;0.78;73.80;101180.63;5043305;28;20021;-78
2023/01/21 08:23:20;;;;;;;46.55;24.58;;;;;;;0.97;73.54;101195.59;5043075;28;20406;-78
2023/01/21 08:25:45;;;;;;;39.53;23.27;;;;;;;0.97;73.44;101194.75;5042982;28;20036;-78
2023/01/21 08:28:11;;;;;;;40.88;22.73;;;;;;;0.86;73.90;101198.59;5042699;28;20665;-78
2023/01/21 08:30:36;;;;;;;39.58;25.30;;;;;;;0.86;74.03;101195.91;5043289;28;20036;-78
2023/01/21 08:33:01;;;;;;;34.22;21.92;;;;;;;0.90;73.88;101199.94;5042709;28;20503;-78
2023/01/21 08:35:27;;;;;;;44.75;25.45;;;;;;;0.97;73.52;101198.28;5042450;28;20040;-78
2023/01/21 08:37:58;;;;;;;36.72;22.38;;;;;;;1.06;73.32;101203.69;5042005;28;20474;-77
2023/01/21 08:40:25;;;;;;;34.75;23.92;;;;;;;1.04;73.25;101203.81;5042589;28;20051;-78
2023/01/21 08:42:51;;;;;;;34.28;24.13;;;;;;;0.91;73.89;101193.56;5042594;28;20033;-78
2023/01/21 08:45:16;;;;;;;39.53;23.83;;;;;;;1.02;73.75;101212.06;5042662;28;20049;-78
2023/01/21 08:47:41;;;;;;;45.78;24.45;;;;;;;1.10;73.85;101200.47;5042691;28;20508;-78
2023/01/21 08:50:08;;;;;;;32.92;21.10;;;;;;;1.16;73.40;101207.03;5042921;28;20083;-77
2023/01/21 08:52:33;;;;;;;45.10;23.00;;;;;;;1.16;73.86;101217.78;5042059;28;20039;-78
2023/01/21 08:54:59;;;;;;;39.40;21.50;;;;;;;1.21;73.63;101218.13;5042690;28;20032;-78
2023/01/21 08:57:26;;;;;;;41.13;23.53;;;;;;;1.14;73.84;101212.56;5042436;28;20056;-77
2023/01/21 08:59:51;;;;;;;37.42;23.50;;;;;;;1.14;74.07;101223.31;5043019;28;20799;-79
2023/01/21 09:02:16;;;;;;;39.57;23.37;;;;;;;1.22;73.69;101225.16;5041395;28;20063;-78
2023/01/21 09:04:41;;;;;;;48.55;25.42;;;;;;;1.31;73.29;101228.72;5043576;28;20593;-80
2023/01/21 09:07:07;;;;;;;41.27;20.67;;;;;;;1.25;74.10;101224.84;5042892;28;20087;-79
2023/01/21 09:09:32;;;;;;;34.63;22.10;;;;;;;1.28;74.04;101215.63;5040526;28;20297;-78
2023/01/21 09:11:57;;;;;;;34.92;22.30;;;;;;;1.30;73.15;101226.19;5042546;28;20250;-79
2023/01/21 09:14:22;;;;;;;33.97;21.23;;;;;;;1.26;73.82;101225.69;5042529;28;20032;-79
2023/01/21 09:16:48;;;;;;;35.28;19.75;;;;;;;1.32;73.83;101229.56;5042976;28;20262;-78
2023/01/21 09:19:13;;;;;;;33.42;21.63;;;;;;;1.32;74.36;101232.25;5040729;28;20044;-79
2023/01/21 09:21:38;;;;;;;36.08;22.70;;;;;;;1.32;74.20;101234.94;5042332;28;20040;-84
2023/01/21 09:24:04;;;;;;;35.15;21.63;;;;;;;1.31;74.37;101233.25;5043486;28;20101;-79
2023/01/21 09:26:30;;;;;;;28.25;18.00;;;;;;;1.28;75.04;101235.25;5043428;28;20040;-80
2023/01/21 09:28:57;;;;;;;39.38;19.92;;;;;;;1.28;75.23;101240.63;5041066;28;20037;-81
2023/01/21 09:31:24;;;;;;;32.70;20.63;;;;;;;1.25;74.92;101235.59;5043059;28;20171;-79
2023/01/21 09:33:53;;;;;;;33.42;22.55;;;;;;;1.33;74.58;101237.44;5043450;28;20535;-81
2023/01/21 09:36:20;;;;;;;37.70;23.02;;;;;;;1.28;74.79;101237.13;5043105;28;20037;-79
2023/01/21 09:38:47;;;;;;;36.58;19.05;;;;;;;1.30;74.87;101235.13;5041087;28;20056;-79
2023/01/21 09:41:38;;;;;;;32.88;20.77;;;;;;;1.44;75.03;101244.34;5042527;28;20037;-81
2023/01/21 09:44:25;;;;;;;38.05;21.63;;;;;;;1.33;75.61;101247.34;5042842;28;20025;-79
2023/01/21 09:47:16;;;;;;;33.97;20.30;;;;;;;1.34;75.38;101259.81;5042507;28;20084;-80
2023/01/21 09:50:02;;;;;;;35.95;21.75;;;;;;;1.42;74.57;101253.59;5041183;28;20029;-80
2023/01/21 09:52:39;;;;;;;35.20;21.17;;;;;;;1.38;75.23;101261.97;5042784;28;20044;-80
2023/01/21 09:55:13;;;;;;;37.00;21.70;;;;;;;1.43;74.64;101258.78;5042530;28;20271;-80
2023/01/21 09:57:41;;;;;;;39.75;23.13;;;;;;;1.43;74.92;101274.91;5040976;28;20075;-78
2023/01/21 10:00:18;;;;;;;40.38;21.83;;;;;;;1.36;75.19;101271.22;5041365;28;20257;-79
2023/01/21 10:03:01;;;;;;;39.40;25.77;;;;;;;1.51;74.82;101274.06;5041329;28;20448;-78
2023/01/21 10:05:43;;;;;;;32.00;19.92;;;;;;;1.66;74.78;101281.47;5044197;28;20036;-79
2023/01/21 10:08:19;;;;;;;38.58;21.95;;;;;;;1.69;74.89;101275.78;5042999;28;20063;-79
2023/01/21 10:10:51;;;;;;;35.13;21.85;;;;;;;1.73;74.40;101277.09;5045128;28;20297;-80
2023/01/21 10:13:24;;;;;;;32.40;20.20;;;;;;;1.75;74.66;101281.31;5043817;28;20033;-79
2023/01/21 10:15:59;;;;;;;38.08;22.33;;;;;;;1.83;74.49;101276.97;5046332;28;20425;-81
2023/01/21 10:18:28;;;;;;;30.92;21.35;;;;;;;1.92;74.31;101283.16;5044517;28;20358;-80
2023/01/21 10:20:59;;;;;;;34.83;20.88;;;;;;;1.90;74.08;101286.00;5045880;28;20473;-81
2023/01/21 10:23:33;;;;;;;33.55;19.80;;;;;;;1.82;74.70;101277.94;5046610;28;20116;-80
2023/01/21 10:26:05;;;;;;;42.28;20.73;;;;;;;1.93;73.84;101285.66;5045682;28;20079;-79
2023/01/21 10:28:30;;;;;;;25.67;18.60;;;;;;;2.01;73.78;101282.16;5044081;28;20051;-80
2023/01/21 10:31:13;;;;;;;28.75;18.88;;;;;;;2.02;74.27;101277.59;5045811;28;20036;-80
2023/01/21 10:33:38;;;;;;;41.55;23.88;;;;;;;2.06;74.49;101290.53;5046050;28;20067;-79
2023/01/21 10:36:43;;;;;;;44.70;23.73;;;;;;;2.14;74.60;101289.69;5046039;28;20057;-81
2023/01/21 10:39:38;;;;;;;37.13;23.27;;;;;;;2.13;74.90;101289.84;5044031;28;20067;-80
2023/01/21 10:42:32;;;;;;;36.35;22.90;;;;;;;2.21;74.66;101287.16;5045636;28;20040;-81
2023/01/21 10:45:15;;;;;;;35.53;21.60;;;;;;;2.26;74.82;101283.97;5045566;28;20048;-80
2023/01/21 10:48:08;;;;;;;42.38;23.02;;;;;;;2.20;74.52;101286.31;5042610;28;20165;-79
2023/01/21 10:50:50;;;;;;;39.08;22.65;;;;;;;2.11;74.89;101279.28;5045610;28;20060;-81
2023/01/21 10:53:23;;;;;;;42.60;23.40;;;;;;;2.26;74.26;101276.69;5045597;28;20082;-80
2023/01/21 10:56:02;;;;;;;36.95;22.60;;;;;;;2.22;74.63;101283.44;5045458;28;20094;-79
2023/01/21 10:58:43;;;;;;;42.95;22.00;;;;;;;2.26;74.93;101273.19;5044079;28;20043;-80
2023/01/21 11:01:17;;;;;;;29.25;20.67;;;;;;;2.35;74.17;101274.00;5045651;28;20460;-79
2023/01/21 11:03:46;;;;;;;39.00;23.55;;;;;;;2.29;74.04;101278.22;5046024;28;20470;-79
2023/01/21 11:06:15;;;;;;;35.92;21.73;;;;;;;2.33;75.56;101282.25;5045638;28;20045;-80
2023/01/21 11:08:44;;;;;;;36.15;20.80;;;;;;;2.45;75.22;101280.88;5044162;28;20094;-79
2023/01/21 11:11:11;;;;;;;41.25;22.73;;;;;;;2.50;74.75;101279.50;5045550;28;20033;-81
2023/01/21 11:13:36;;;;;;;33.58;22.30;;;;;;;2.52;74.47;101280.19;5045601;28;20040;-81
2023/01/21 11:16:03;;;;;;;34.40;21.80;;;;;;;2.44;74.64;101276.47;5043960;28;20688;-81
2023/01/21 11:18:30;;;;;;;38.75;22.85;;;;;;;2.49;75.27;101277.81;5043680;28;20041;-79
2023/01/21 11:21:01;;;;;;;37.45;21.33;;;;;;;2.61;74.33;101273.72;5045100;28;20512;-80
2023/01/21 11:23:38;;;;;;;36.72;21.15;;;;;;;2.60;74.12;101274.75;5045180;28;20040;-80
2023/01/21 11:26:17;;;;;;;36.42;24.50;;;;;;;2.61;74.06;101271.03;5044735;28;20155;-80
2023/01/21 11:28:44;;;;;;;39.63;21.75;;;;;;;2.59;73.95;101277.59;5043539;28;20051;-80